Terminal Aerodrome Forecast
Issued by NWS

Current Version | Previous Version | Text Only | Print | Product List | Glossary Off
Versions: 1 2 3 4 5 6 7 8 9 10 11 12 13 14 15 16 17 18

000
FTUS41 KILN 251731
TAFLUK
TAF
KLUK 251731Z 2518/2618 15005KT P6SM SCT045
     FM260100 00000KT P6SM FEW200
     FM260900 00000KT 4SM BR SCT200
     FM261300 18009KT P6SM FEW200=

USA.gov is the U.S. government's official web portal to all federal, state and local government web resources and services.